sensor_id;sensor_type;location;lat;lon;timestamp;P1;durP1;ratioP1;P2;durP2;ratioP2
74957;SDS011;63741;42.624;26.276;2023-03-20T00:01:52;31.08;;;14.35;;
74957;SDS011;63741;42.624;26.276;2023-03-20T00:04:19;27.45;;;14.85;;
74957;SDS011;63741;42.624;26.276;2023-03-20T00:06:46;21.52;;;12.20;;
74957;SDS011;63741;42.624;26.276;2023-03-20T00:09:13;17.00;;;10.73;;
74957;SDS011;63741;42.624;26.276;2023-03-20T00:11:43;20.98;;;10.98;;
74957;SDS011;63741;42.624;26.276;2023-03-20T00:14:14;19.58;;;10.57;;
74957;SDS011;63741;42.624;26.276;2023-03-20T00:16:44;85.13;;;35.53;;
74957;SDS011;63741;42.624;26.276;2023-03-20T00:19:22;37.05;;;18.35;;
74957;SDS011;63741;42.624;26.276;2023-03-20T00:21:55;41.92;;;20.00;;
74957;SDS011;63741;42.624;26.276;2023-03-20T00:24:23;42.95;;;21.25;;
74957;SDS011;63741;42.624;26.276;2023-03-20T00:26:51;36.20;;;18.17;;
74957;SDS011;63741;42.624;26.276;2023-03-20T00:29:25;37.22;;;19.75;;
74957;SDS011;63741;42.624;26.276;2023-03-20T00:31:56;77.72;;;37.10;;
74957;SDS011;63741;42.624;26.276;2023-03-20T00:34:25;43.30;;;23.73;;
74957;SDS011;63741;42.624;26.276;2023-03-20T00:36:55;28.05;;;16.80;;
74957;SDS011;63741;42.624;26.276;2023-03-20T00:39:23;27.15;;;16.02;;
74957;SDS011;63741;42.624;26.276;2023-03-20T00:41:51;26.23;;;14.52;;
74957;SDS011;63741;42.624;26.276;2023-03-20T00:47:01;26.33;;;14.80;;
74957;SDS011;63741;42.624;26.276;2023-03-20T00:49:37;23.67;;;13.07;;
74957;SDS011;63741;42.624;26.276;2023-03-20T00:52:05;21.40;;;11.32;;
74957;SDS011;63741;42.624;26.276;2023-03-20T00:54:32;20.65;;;11.57;;
74957;SDS011;63741;42.624;26.276;2023-03-20T00:57:07;18.63;;;10.40;;
74957;SDS011;63741;42.624;26.276;2023-03-20T00:59:40;20.63;;;10.43;;
74957;SDS011;63741;42.624;26.276;2023-03-20T01:02:12;18.80;;;9.75;;
74957;SDS011;63741;42.624;26.276;2023-03-20T01:04:41;20.40;;;10.68;;
74957;SDS011;63741;42.624;26.276;2023-03-20T01:07:09;19.63;;;11.30;;
74957;SDS011;63741;42.624;26.276;2023-03-20T01:09:39;19.40;;;11.35;;
74957;SDS011;63741;42.624;26.276;2023-03-20T01:12:08;19.65;;;11.13;;
74957;SDS011;63741;42.624;26.276;2023-03-20T01:14:39;20.27;;;11.07;;
74957;SDS011;63741;42.624;26.276;2023-03-20T01:17:25;18.83;;;10.68;;
74957;SDS011;63741;42.624;26.276;2023-03-20T01:19:53;19.50;;;10.85;;
74957;SDS011;63741;42.624;26.276;2023-03-20T01:22:20;19.95;;;11.15;;
74957;SDS011;63741;42.624;26.276;2023-03-20T01:24:47;18.73;;;10.98;;
74957;SDS011;63741;42.624;26.276;2023-03-20T01:27:16;21.13;;;11.48;;
74957;SDS011;63741;42.624;26.276;2023-03-20T01:29:45;23.90;;;13.40;;
74957;SDS011;63741;42.624;26.276;2023-03-20T01:32:14;36.03;;;15.02;;
74957;SDS011;63741;42.624;26.276;2023-03-20T01:34:46;24.80;;;14.60;;
74957;SDS011;63741;42.624;26.276;2023-03-20T01:37:16;23.77;;;14.35;;
74957;SDS011;63741;42.624;26.276;2023-03-20T01:39:44;23.92;;;14.13;;
74957;SDS011;63741;42.624;26.276;2023-03-20T01:42:12;25.15;;;14.52;;
74957;SDS011;63741;42.624;26.276;2023-03-20T01:44:42;26.73;;;14.70;;
74957;SDS011;63741;42.624;26.276;2023-03-20T01:47:16;24.40;;;14.77;;
74957;SDS011;63741;42.624;26.276;2023-03-20T01:53:15;28.55;;;15.95;;
74957;SDS011;63741;42.624;26.276;2023-03-20T01:55:59;26.88;;;15.50;;
74957;SDS011;63741;42.624;26.276;2023-03-20T01:58:41;33.60;;;16.48;;
74957;SDS011;63741;42.624;26.276;2023-03-20T02:01:12;25.75;;;15.27;;
74957;SDS011;63741;42.624;26.276;2023-03-20T02:03:43;28.48;;;16.55;;
74957;SDS011;63741;42.624;26.276;2023-03-20T02:06:34;20.88;;;11.05;;
74957;SDS011;63741;42.624;26.276;2023-03-20T02:09:11;13.55;;;8.77;;
74957;SDS011;63741;42.624;26.276;2023-03-20T02:11:41;13.88;;;8.60;;
74957;SDS011;63741;42.624;26.276;2023-03-20T02:14:10;15.20;;;9.40;;
74957;SDS011;63741;42.624;26.276;2023-03-20T02:16:48;26.55;;;13.90;;
74957;SDS011;63741;42.624;26.276;2023-03-20T02:25:31;29.83;;;14.90;;
74957;SDS011;63741;42.624;26.276;2023-03-20T02:44:46;27.13;;;13.48;;
74957;SDS011;63741;42.624;26.276;2023-03-20T02:47:53;31.60;;;14.18;;
74957;SDS011;63741;42.624;26.276;2023-03-20T02:53:22;33.63;;;14.32;;
74957;SDS011;63741;42.624;26.276;2023-03-20T02:56:15;28.75;;;14.80;;
74957;SDS011;63741;42.624;26.276;2023-03-20T02:59:01;24.80;;;13.73;;
74957;SDS011;63741;42.624;26.276;2023-03-20T03:01:42;23.60;;;13.23;;
74957;SDS011;63741;42.624;26.276;2023-03-20T03:04:15;26.05;;;13.88;;
74957;SDS011;63741;42.624;26.276;2023-03-20T03:06:47;25.17;;;13.48;;
74957;SDS011;63741;42.624;26.276;2023-03-20T03:09:22;25.25;;;13.23;;
74957;SDS011;63741;42.624;26.276;2023-03-20T03:11:56;17.70;;;9.63;;
74957;SDS011;63741;42.624;26.276;2023-03-20T03:17:18;20.25;;;9.90;;
74957;SDS011;63741;42.624;26.276;2023-03-20T03:19:50;16.35;;;8.90;;
74957;SDS011;63741;42.624;26.276;2023-03-20T03:22:21;13.10;;;8.48;;
74957;SDS011;63741;42.624;26.276;2023-03-20T03:24:50;16.10;;;7.97;;
74957;SDS011;63741;42.624;26.276;2023-03-20T03:29:53;14.98;;;8.48;;
74957;SDS011;63741;42.624;26.276;2023-03-20T03:32:27;13.57;;;7.95;;
74957;SDS011;63741;42.624;26.276;2023-03-20T03:34:57;20.48;;;7.95;;
74957;SDS011;63741;42.624;26.276;2023-03-20T03:40:09;17.55;;;8.60;;
74957;SDS011;63741;42.624;26.276;2023-03-20T03:42:46;13.63;;;8.50;;
74957;SDS011;63741;42.624;26.276;2023-03-20T03:45:43;18.27;;;8.60;;
74957;SDS011;63741;42.624;26.276;2023-03-20T03:48:13;14.20;;;8.23;;
74957;SDS011;63741;42.624;26.276;2023-03-20T03:50:54;15.07;;;8.63;;
74957;SDS011;63741;42.624;26.276;2023-03-20T03:53:29;14.07;;;8.35;;
74957;SDS011;63741;42.624;26.276;2023-03-20T03:56:01;17.17;;;8.10;;
74957;SDS011;63741;42.624;26.276;2023-03-20T03:58:40;15.25;;;9.20;;
74957;SDS011;63741;42.624;26.276;2023-03-20T04:01:10;18.08;;;10.20;;
74957;SDS011;63741;42.624;26.276;2023-03-20T04:03:48;26.33;;;10.85;;
74957;SDS011;63741;42.624;26.276;2023-03-20T04:06:18;18.23;;;10.43;;
74957;SDS011;63741;42.624;26.276;2023-03-20T04:08:48;26.05;;;10.35;;
74957;SDS011;63741;42.624;26.276;2023-03-20T04:11:16;33.28;;;11.05;;
74957;SDS011;63741;42.624;26.276;2023-03-20T04:13:47;21.73;;;11.32;;
74957;SDS011;63741;42.624;26.276;2023-03-20T04:16:16;22.10;;;11.88;;
74957;SDS011;63741;42.624;26.276;2023-03-20T04:18:44;20.65;;;11.77;;
74957;SDS011;63741;42.624;26.276;2023-03-20T04:21:13;21.85;;;11.77;;
74957;SDS011;63741;42.624;26.276;2023-03-20T04:23:42;21.67;;;11.80;;
74957;SDS011;63741;42.624;26.276;2023-03-20T04:26:09;22.85;;;11.60;;
74957;SDS011;63741;42.624;26.276;2023-03-20T04:28:37;34.15;;;16.83;;
74957;SDS011;63741;42.624;26.276;2023-03-20T04:31:24;50.35;;;21.55;;
74957;SDS011;63741;42.624;26.276;2023-03-20T04:34:03;46.05;;;20.83;;
74957;SDS011;63741;42.624;26.276;2023-03-20T04:36:49;42.78;;;20.48;;
74957;SDS011;63741;42.624;26.276;2023-03-20T04:39:17;33.92;;;15.07;;
74957;SDS011;63741;42.624;26.276;2023-03-20T04:41:44;42.60;;;18.17;;
74957;SDS011;63741;42.624;26.276;2023-03-20T04:44:11;57.25;;;23.20;;
74957;SDS011;63741;42.624;26.276;2023-03-20T04:46:41;85.10;;;30.05;;
74957;SDS011;63741;42.624;26.276;2023-03-20T04:49:13;38.42;;;16.38;;
74957;SDS011;63741;42.624;26.276;2023-03-20T04:51:41;35.13;;;16.08;;
74957;SDS011;63741;42.624;26.276;2023-03-20T04:54:10;50.03;;;20.08;;
74957;SDS011;63741;42.624;26.276;2023-03-20T04:56:37;90.38;;;35.28;;
74957;SDS011;63741;42.624;26.276;2023-03-20T04:59:14;48.03;;;19.60;;
74957;SDS011;63741;42.624;26.276;2023-03-20T05:01:40;33.33;;;16.00;;
74957;SDS011;63741;42.624;26.276;2023-03-20T05:04:08;27.15;;;15.07;;
74957;SDS011;63741;42.624;26.276;2023-03-20T05:06:35;34.05;;;15.73;;
74957;SDS011;63741;42.624;26.276;2023-03-20T05:09:02;26.58;;;13.70;;
74957;SDS011;63741;42.624;26.276;2023-03-20T05:11:32;26.05;;;13.05;;
74957;SDS011;63741;42.624;26.276;2023-03-20T05:13:58;28.15;;;13.52;;
74957;SDS011;63741;42.624;26.276;2023-03-20T05:16:40;23.25;;;12.57;;
74957;SDS011;63741;42.624;26.276;2023-03-20T05:19:25;26.67;;;12.63;;
74957;SDS011;63741;42.624;26.276;2023-03-20T05:22:09;22.50;;;11.05;;
74957;SDS011;63741;42.624;26.276;2023-03-20T05:24:39;21.90;;;11.50;;
74957;SDS011;63741;42.624;26.276;2023-03-20T05:27:24;23.90;;;11.00;;
74957;SDS011;63741;42.624;26.276;2023-03-20T05:30:23;23.25;;;11.57;;
74957;SDS011;63741;42.624;26.276;2023-03-20T05:33:09;32.03;;;13.00;;
74957;SDS011;63741;42.624;26.276;2023-03-20T05:35:51;28.50;;;11.65;;
74957;SDS011;63741;42.624;26.276;2023-03-20T05:38:40;24.30;;;11.57;;
74957;SDS011;63741;42.624;26.276;2023-03-20T05:41:33;24.50;;;10.80;;
74957;SDS011;63741;42.624;26.276;2023-03-20T05:44:23;21.38;;;10.65;;
74957;SDS011;63741;42.624;26.276;2023-03-20T05:47:11;25.13;;;12.00;;
74957;SDS011;63741;42.624;26.276;2023-03-20T05:49:53;25.63;;;11.55;;
74957;SDS011;63741;42.624;26.276;2023-03-20T05:52:35;22.20;;;11.57;;
74957;SDS011;63741;42.624;26.276;2023-03-20T05:55:21;27.50;;;11.55;;
74957;SDS011;63741;42.624;26.276;2023-03-20T05:58:21;30.27;;;11.77;;
74957;SDS011;63741;42.624;26.276;2023-03-20T06:01:07;33.92;;;13.40;;
74957;SDS011;63741;42.624;26.276;2023-03-20T06:03:52;26.83;;;11.13;;
74957;SDS011;63741;42.624;26.276;2023-03-20T06:06:38;25.27;;;11.60;;
74957;SDS011;63741;42.624;26.276;2023-03-20T06:09:07;25.60;;;12.20;;
74957;SDS011;63741;42.624;26.276;2023-03-20T06:11:34;26.08;;;12.38;;
74957;SDS011;63741;42.624;26.276;2023-03-20T06:14:04;26.70;;;11.82;;
74957;SDS011;63741;42.624;26.276;2023-03-20T06:16:36;25.45;;;11.35;;
74957;SDS011;63741;42.624;26.276;2023-03-20T06:19:03;28.98;;;11.18;;
74957;SDS011;63741;42.624;26.276;2023-03-20T06:21:31;24.95;;;12.50;;
74957;SDS011;63741;42.624;26.276;2023-03-20T06:24:00;22.13;;;10.98;;
74957;SDS011;63741;42.624;26.276;2023-03-20T06:26:27;24.13;;;11.65;;
74957;SDS011;63741;42.624;26.276;2023-03-20T06:29:07;33.90;;;12.60;;
74957;SDS011;63741;42.624;26.276;2023-03-20T06:31:34;29.13;;;12.88;;
74957;SDS011;63741;42.624;26.276;2023-03-20T06:34:03;30.65;;;14.10;;
74957;SDS011;63741;42.624;26.276;2023-03-20T06:36:36;27.20;;;13.43;;
74957;SDS011;63741;42.624;26.276;2023-03-20T06:39:09;28.55;;;12.88;;
74957;SDS011;63741;42.624;26.276;2023-03-20T06:41:37;29.00;;;13.73;;
74957;SDS011;63741;42.624;26.276;2023-03-20T06:44:07;33.33;;;14.55;;
74957;SDS011;63741;42.624;26.276;2023-03-20T06:46:52;28.70;;;13.43;;
74957;SDS011;63741;42.624;26.276;2023-03-20T06:49:20;22.25;;;11.30;;
74957;SDS011;63741;42.624;26.276;2023-03-20T06:51:48;21.85;;;11.60;;
74957;SDS011;63741;42.624;26.276;2023-03-20T06:54:22;21.48;;;10.93;;
74957;SDS011;63741;42.624;26.276;2023-03-20T06:56:49;22.65;;;11.50;;
74957;SDS011;63741;42.624;26.276;2023-03-20T06:59:16;22.23;;;11.75;;
74957;SDS011;63741;42.624;26.276;2023-03-20T07:01:43;26.55;;;15.00;;
74957;SDS011;63741;42.624;26.276;2023-03-20T07:04:11;23.10;;;14.45;;
74957;SDS011;63741;42.624;26.276;2023-03-20T07:06:45;23.65;;;13.20;;
74957;SDS011;63741;42.624;26.276;2023-03-20T07:09:13;25.13;;;12.98;;
74957;SDS011;63741;42.624;26.276;2023-03-20T07:11:40;21.42;;;12.23;;
74957;SDS011;63741;42.624;26.276;2023-03-20T07:14:07;25.50;;;11.75;;
74957;SDS011;63741;42.624;26.276;2023-03-20T07:16:45;24.60;;;12.27;;
74957;SDS011;63741;42.624;26.276;2023-03-20T07:19:12;22.40;;;11.88;;
74957;SDS011;63741;42.624;26.276;2023-03-20T07:21:42;20.52;;;11.75;;
74957;SDS011;63741;42.624;26.276;2023-03-20T07:24:12;24.48;;;12.02;;
74957;SDS011;63741;42.624;26.276;2023-03-20T07:26:39;23.40;;;12.38;;
74957;SDS011;63741;42.624;26.276;2023-03-20T07:29:07;28.58;;;13.20;;
74957;SDS011;63741;42.624;26.276;2023-03-20T07:31:34;21.65;;;12.02;;
74957;SDS011;63741;42.624;26.276;2023-03-20T07:34:22;21.27;;;12.65;;
74957;SDS011;63741;42.624;26.276;2023-03-20T07:36:51;22.15;;;13.02;;
74957;SDS011;63741;42.624;26.276;2023-03-20T07:39:19;31.35;;;17.42;;
74957;SDS011;63741;42.624;26.276;2023-03-20T07:42:09;30.70;;;17.42;;
74957;SDS011;63741;42.624;26.276;2023-03-20T07:44:43;22.75;;;12.90;;
74957;SDS011;63741;42.624;26.276;2023-03-20T07:47:10;26.08;;;15.23;;
74957;SDS011;63741;42.624;26.276;2023-03-20T07:49:37;23.33;;;12.95;;
74957;SDS011;63741;42.624;26.276;2023-03-20T07:52:06;21.77;;;13.68;;
74957;SDS011;63741;42.624;26.276;2023-03-20T07:54:33;25.23;;;13.23;;
74957;SDS011;63741;42.624;26.276;2023-03-20T07:57:00;27.95;;;14.23;;
74957;SDS011;63741;42.624;26.276;2023-03-20T07:59:27;32.60;;;18.10;;
74957;SDS011;63741;42.624;26.276;2023-03-20T08:01:54;26.20;;;15.60;;
74957;SDS011;63741;42.624;26.276;2023-03-20T08:04:21;25.08;;;15.43;;
74957;SDS011;63741;42.624;26.276;2023-03-20T08:06:48;23.63;;;15.13;;
74957;SDS011;63741;42.624;26.276;2023-03-20T08:09:16;21.95;;;13.88;;
74957;SDS011;63741;42.624;26.276;2023-03-20T08:11:43;25.17;;;15.52;;
74957;SDS011;63741;42.624;26.276;2023-03-20T08:14:11;26.33;;;15.05;;
74957;SDS011;63741;42.624;26.276;2023-03-20T08:16:38;23.17;;;14.35;;
74957;SDS011;63741;42.624;26.276;2023-03-20T08:19:05;25.23;;;15.68;;
74957;SDS011;63741;42.624;26.276;2023-03-20T08:21:32;24.90;;;15.88;;
74957;SDS011;63741;42.624;26.276;2023-03-20T08:23:59;19.77;;;12.27;;
74957;SDS011;63741;42.624;26.276;2023-03-20T08:26:26;25.42;;;14.65;;
74957;SDS011;63741;42.624;26.276;2023-03-20T08:28:53;23.65;;;14.48;;
74957;SDS011;63741;42.624;26.276;2023-03-20T08:31:20;21.55;;;13.10;;
74957;SDS011;63741;42.624;26.276;2023-03-20T08:33:47;23.27;;;13.25;;
74957;SDS011;63741;42.624;26.276;2023-03-20T08:36:14;22.45;;;13.65;;
74957;SDS011;63741;42.624;26.276;2023-03-20T08:38:42;22.17;;;13.90;;
74957;SDS011;63741;42.624;26.276;2023-03-20T08:41:09;26.83;;;13.88;;
74957;SDS011;63741;42.624;26.276;2023-03-20T08:43:36;20.60;;;13.80;;
74957;SDS011;63741;42.624;26.276;2023-03-20T08:46:03;22.48;;;13.13;;
74957;SDS011;63741;42.624;26.276;2023-03-20T08:48:30;36.45;;;14.23;;
74957;SDS011;63741;42.624;26.276;2023-03-20T08:50:57;19.00;;;11.88;;
74957;SDS011;63741;42.624;26.276;2023-03-20T08:53:24;18.58;;;12.18;;
74957;SDS011;63741;42.624;26.276;2023-03-20T08:55:51;19.40;;;12.48;;
74957;SDS011;63741;42.624;26.276;2023-03-20T08:58:19;19.40;;;11.68;;
74957;SDS011;63741;42.624;26.276;2023-03-20T09:00:46;17.23;;;11.02;;
74957;SDS011;63741;42.624;26.276;2023-03-20T09:03:14;20.85;;;11.50;;
74957;SDS011;63741;42.624;26.276;2023-03-20T09:05:43;23.70;;;11.07;;
74957;SDS011;63741;42.624;26.276;2023-03-20T09:08:14;17.00;;;11.02;;
74957;SDS011;63741;42.624;26.276;2023-03-20T09:10:41;20.33;;;10.38;;
74957;SDS011;63741;42.624;26.276;2023-03-20T09:13:08;19.20;;;10.82;;
74957;SDS011;63741;42.624;26.276;2023-03-20T09:15:52;17.58;;;11.05;;
74957;SDS011;63741;42.624;26.276;2023-03-20T09:18:20;15.23;;;9.20;;
74957;SDS011;63741;42.624;26.276;2023-03-20T09:20:48;16.60;;;9.82;;
74957;SDS011;63741;42.624;26.276;2023-03-20T09:23:16;15.50;;;9.52;;
74957;SDS011;63741;42.624;26.276;2023-03-20T09:25:43;23.25;;;9.63;;
74957;SDS011;63741;42.624;26.276;2023-03-20T09:28:10;17.83;;;9.98;;
74957;SDS011;63741;42.624;26.276;2023-03-20T09:30:37;19.30;;;10.65;;
74957;SDS011;63741;42.624;26.276;2023-03-20T09:33:04;21.73;;;10.10;;
74957;SDS011;63741;42.624;26.276;2023-03-20T09:35:32;20.10;;;10.52;;
74957;SDS011;63741;42.624;26.276;2023-03-20T09:37:59;18.08;;;9.80;;
74957;SDS011;63741;42.624;26.276;2023-03-20T09:40:26;18.15;;;9.50;;
74957;SDS011;63741;42.624;26.276;2023-03-20T09:43:01;15.70;;;8.75;;
74957;SDS011;63741;42.624;26.276;2023-03-20T09:46:00;14.15;;;7.47;;
74957;SDS011;63741;42.624;26.276;2023-03-20T09:51:31;14.30;;;7.50;;
74957;SDS011;63741;42.624;26.276;2023-03-20T09:54:09;15.98;;;7.30;;
74957;SDS011;63741;42.624;26.276;2023-03-20T09:56:51;13.75;;;7.50;;
74957;SDS011;63741;42.624;26.276;2023-03-20T09:59:20;14.63;;;7.03;;
74957;SDS011;63741;42.624;26.276;2023-03-20T10:04:18;17.80;;;8.07;;
74957;SDS011;63741;42.624;26.276;2023-03-20T10:06:45;14.77;;;8.45;;
74957;SDS011;63741;42.624;26.276;2023-03-20T10:09:25;15.52;;;8.55;;
74957;SDS011;63741;42.624;26.276;2023-03-20T10:14:38;14.50;;;8.18;;
74957;SDS011;63741;42.624;26.276;2023-03-20T10:17:19;18.55;;;8.20;;
74957;SDS011;63741;42.624;26.276;2023-03-20T10:22:37;13.93;;;8.32;;
74957;SDS011;63741;42.624;26.276;2023-03-20T10:28:12;13.18;;;7.85;;
74957;SDS011;63741;42.624;26.276;2023-03-20T10:36:13;15.40;;;8.23;;
74957;SDS011;63741;42.624;26.276;2023-03-20T10:41:41;11.25;;;7.20;;
74957;SDS011;63741;42.624;26.276;2023-03-20T10:44:18;14.02;;;6.80;;
74957;SDS011;63741;42.624;26.276;2023-03-20T10:47:11;20.63;;;8.23;;
74957;SDS011;63741;42.624;26.276;2023-03-20T10:49:42;12.25;;;7.47;;
74957;SDS011;63741;42.624;26.276;2023-03-20T10:52:18;12.27;;;7.35;;
74957;SDS011;63741;42.624;26.276;2023-03-20T10:57:25;12.70;;;7.53;;
74957;SDS011;63741;42.624;26.276;2023-03-20T10:59:55;14.77;;;8.07;;
74957;SDS011;63741;42.624;26.276;2023-03-20T11:02:29;15.48;;;7.30;;
74957;SDS011;63741;42.624;26.276;2023-03-20T11:05:18;12.90;;;7.22;;
74957;SDS011;63741;42.624;26.276;2023-03-20T11:07:59;13.85;;;7.82;;
74957;SDS011;63741;42.624;26.276;2023-03-20T11:10:46;11.73;;;7.07;;
74957;SDS011;63741;42.624;26.276;2023-03-20T11:13:25;13.77;;;7.22;;
74957;SDS011;63741;42.624;26.276;2023-03-20T11:18:35;14.68;;;7.20;;
74957;SDS011;63741;42.624;26.276;2023-03-20T11:21:02;15.40;;;6.63;;
74957;SDS011;63741;42.624;26.276;2023-03-20T11:23:33;15.38;;;7.45;;
74957;SDS011;63741;42.624;26.276;2023-03-20T11:26:04;12.77;;;7.30;;
74957;SDS011;63741;42.624;26.276;2023-03-20T11:33:50;11.00;;;7.18;;
74957;SDS011;63741;42.624;26.276;2023-03-20T11:36:27;11.63;;;6.95;;
74957;SDS011;63741;42.624;26.276;2023-03-20T11:39:11;16.73;;;6.82;;
74957;SDS011;63741;42.624;26.276;2023-03-20T11:41:50;10.02;;;7.30;;
74957;SDS011;63741;42.624;26.276;2023-03-20T11:44:28;24.83;;;8.02;;
74957;SDS011;63741;42.624;26.276;2023-03-20T11:47:04;13.75;;;8.13;;
74957;SDS011;63741;42.624;26.276;2023-03-20T11:52:55;17.90;;;7.13;;
74957;SDS011;63741;42.624;26.276;2023-03-20T11:55:27;19.45;;;7.28;;
74957;SDS011;63741;42.624;26.276;2023-03-20T11:57:57;11.88;;;7.57;;
74957;SDS011;63741;42.624;26.276;2023-03-20T12:00:27;13.95;;;7.10;;
74957;SDS011;63741;42.624;26.276;2023-03-20T12:03:02;12.02;;;6.82;;
74957;SDS011;63741;42.624;26.276;2023-03-20T12:10:40;12.50;;;7.25;;
74957;SDS011;63741;42.624;26.276;2023-03-20T12:13:15;10.00;;;6.45;;
74957;SDS011;63741;42.624;26.276;2023-03-20T12:15:55;11.55;;;6.85;;
74957;SDS011;63741;42.624;26.276;2023-03-20T12:18:32;15.73;;;6.15;;
74957;SDS011;63741;42.624;26.276;2023-03-20T12:23:42;20.20;;;7.50;;
74957;SDS011;63741;42.624;26.276;2023-03-20T12:29:06;11.07;;;6.35;;
74957;SDS011;63741;42.624;26.276;2023-03-20T12:31:47;14.43;;;7.18;;
74957;SDS011;63741;42.624;26.276;2023-03-20T12:34:18;11.43;;;6.88;;
74957;SDS011;63741;42.624;26.276;2023-03-20T12:36:50;14.25;;;6.63;;
74957;SDS011;63741;42.624;26.276;2023-03-20T12:39:27;12.48;;;6.80;;
74957;SDS011;63741;42.624;26.276;2023-03-20T12:58:22;12.75;;;6.40;;
74957;SDS011;63741;42.624;26.276;2023-03-20T13:01:08;10.45;;;6.18;;
74957;SDS011;63741;42.624;26.276;2023-03-20T13:12:22;8.45;;;5.78;;
74957;SDS011;63741;42.624;26.276;2023-03-20T13:20:30;11.70;;;5.40;;
74957;SDS011;63741;42.624;26.276;2023-03-20T13:29:26;8.30;;;5.20;;
74957;SDS011;63741;42.624;26.276;2023-03-20T13:34:51;10.20;;;5.00;;
74957;SDS011;63741;42.624;26.276;2023-03-20T13:40:16;7.55;;;4.65;;
74957;SDS011;63741;42.624;26.276;2023-03-20T13:45:50;9.75;;;4.60;;
74957;SDS011;63741;42.624;26.276;2023-03-20T13:48:29;15.55;;;4.70;;
74957;SDS011;63741;42.624;26.276;2023-03-20T13:59:15;17.80;;;5.40;;
74957;SDS011;63741;42.624;26.276;2023-03-20T14:04:46;8.73;;;5.35;;
74957;SDS011;63741;42.624;26.276;2023-03-20T14:07:31;9.35;;;5.22;;
74957;SDS011;63741;42.624;26.276;2023-03-20T14:13:00;15.80;;;5.82;;
74957;SDS011;63741;42.624;26.276;2023-03-20T14:15:35;23.33;;;5.22;;
74957;SDS011;63741;42.624;26.276;2023-03-20T14:18:04;16.25;;;6.18;;
74957;SDS011;63741;42.624;26.276;2023-03-20T14:20:37;10.85;;;6.20;;
74957;SDS011;63741;42.624;26.276;2023-03-20T14:26:42;11.85;;;6.55;;
74957;SDS011;63741;42.624;26.276;2023-03-20T14:31:42;11.10;;;7.13;;
74957;SDS011;63741;42.624;26.276;2023-03-20T14:34:15;11.50;;;6.28;;
74957;SDS011;63741;42.624;26.276;2023-03-20T14:36:59;13.32;;;7.80;;
74957;SDS011;63741;42.624;26.276;2023-03-20T14:47:37;9.98;;;5.72;;
74957;SDS011;63741;42.624;26.276;2023-03-20T15:01:13;11.77;;;6.35;;
74957;SDS011;63741;42.624;26.276;2023-03-20T15:03:47;10.98;;;6.40;;
74957;SDS011;63741;42.624;26.276;2023-03-20T15:06:16;10.50;;;6.65;;
74957;SDS011;63741;42.624;26.276;2023-03-20T15:08:48;13.45;;;6.85;;
74957;SDS011;63741;42.624;26.276;2023-03-20T15:11:18;13.80;;;6.80;;
74957;SDS011;63741;42.624;26.276;2023-03-20T15:13:46;10.10;;;6.75;;
74957;SDS011;63741;42.624;26.276;2023-03-20T15:16:15;11.48;;;6.93;;
74957;SDS011;63741;42.624;26.276;2023-03-20T15:18:46;8.85;;;6.18;;
74957;SDS011;63741;42.624;26.276;2023-03-20T15:21:18;13.40;;;6.65;;
74957;SDS011;63741;42.624;26.276;2023-03-20T15:23:46;11.38;;;6.00;;
74957;SDS011;63741;42.624;26.276;2023-03-20T15:26:14;13.70;;;6.70;;
74957;SDS011;63741;42.624;26.276;2023-03-20T15:28:44;12.02;;;6.45;;
74957;SDS011;63741;42.624;26.276;2023-03-20T15:31:46;16.02;;;6.70;;
74957;SDS011;63741;42.624;26.276;2023-03-20T15:34:07;11.65;;;6.32;;
74957;SDS011;63741;42.624;26.276;2023-03-20T15:36:38;8.63;;;5.45;;
74957;SDS011;63741;42.624;26.276;2023-03-20T15:39:13;9.20;;;6.13;;
74957;SDS011;63741;42.624;26.276;2023-03-20T15:42:08;11.07;;;5.97;;
74957;SDS011;63741;42.624;26.276;2023-03-20T15:44:39;15.77;;;5.30;;
74957;SDS011;63741;42.624;26.276;2023-03-20T15:50:04;9.05;;;5.57;;
74957;SDS011;63741;42.624;26.276;2023-03-20T15:52:44;8.60;;;5.57;;
74957;SDS011;63741;42.624;26.276;2023-03-20T15:55:19;8.90;;;5.80;;
74957;SDS011;63741;42.624;26.276;2023-03-20T15:57:48;9.57;;;5.45;;
74957;SDS011;63741;42.624;26.276;2023-03-20T16:00:20;16.63;;;5.90;;
74957;SDS011;63741;42.624;26.276;2023-03-20T16:02:55;10.57;;;5.85;;
74957;SDS011;63741;42.624;26.276;2023-03-20T16:05:25;10.82;;;5.50;;
74957;SDS011;63741;42.624;26.276;2023-03-20T16:07:54;11.77;;;5.90;;
74957;SDS011;63741;42.624;26.276;2023-03-20T16:12:51;16.17;;;12.27;;
74957;SDS011;63741;42.624;26.276;2023-03-20T16:15:23;23.27;;;12.35;;
74957;SDS011;63741;42.624;26.276;2023-03-20T16:17:54;36.35;;;14.93;;
74957;SDS011;63741;42.624;26.276;2023-03-20T16:20:22;28.70;;;22.40;;
74957;SDS011;63741;42.624;26.276;2023-03-20T16:22:54;23.17;;;13.35;;
74957;SDS011;63741;42.624;26.276;2023-03-20T16:25:25;20.83;;;10.93;;
74957;SDS011;63741;42.624;26.276;2023-03-20T16:27:52;20.02;;;10.52;;
74957;SDS011;63741;42.624;26.276;2023-03-20T16:30:24;28.27;;;16.05;;
74957;SDS011;63741;42.624;26.276;2023-03-20T16:33:14;33.05;;;16.25;;
74957;SDS011;63741;42.624;26.276;2023-03-20T16:35:44;43.22;;;15.38;;
74957;SDS011;63741;42.624;26.276;2023-03-20T16:38:15;42.33;;;16.23;;
74957;SDS011;63741;42.624;26.276;2023-03-20T16:44:04;98.50;;;46.17;;
74957;SDS011;63741;42.624;26.276;2023-03-20T16:46:36;371.95;;;244.18;;
74957;SDS011;63741;42.624;26.276;2023-03-20T16:51:55;131.55;;;39.65;;
74957;SDS011;63741;42.624;26.276;2023-03-20T16:54:27;72.10;;;24.10;;
74957;SDS011;63741;42.624;26.276;2023-03-20T16:56:56;121.72;;;34.55;;
74957;SDS011;63741;42.624;26.276;2023-03-20T16:59:23;113.65;;;34.88;;
74957;SDS011;63741;42.624;26.276;2023-03-20T17:01:51;98.80;;;32.75;;
74957;SDS011;63741;42.624;26.276;2023-03-20T17:04:20;86.82;;;32.78;;
74957;SDS011;63741;42.624;26.276;2023-03-20T17:06:51;78.75;;;36.65;;
74957;SDS011;63741;42.624;26.276;2023-03-20T17:09:21;76.20;;;33.83;;
74957;SDS011;63741;42.624;26.276;2023-03-20T17:14:23;51.75;;;27.45;;
74957;SDS011;63741;42.624;26.276;2023-03-20T17:16:50;62.20;;;27.67;;
74957;SDS011;63741;42.624;26.276;2023-03-20T17:19:20;51.00;;;24.67;;
74957;SDS011;63741;42.624;26.276;2023-03-20T17:21:47;53.97;;;27.30;;
74957;SDS011;63741;42.624;26.276;2023-03-20T17:24:14;69.57;;;33.80;;
74957;SDS011;63741;42.624;26.276;2023-03-20T17:26:47;48.70;;;23.10;;
74957;SDS011;63741;42.624;26.276;2023-03-20T17:29:20;26.15;;;12.80;;
74957;SDS011;63741;42.624;26.276;2023-03-20T17:31:47;21.00;;;10.52;;
74957;SDS011;63741;42.624;26.276;2023-03-20T17:34:14;26.60;;;15.05;;
74957;SDS011;63741;42.624;26.276;2023-03-20T17:36:41;34.17;;;22.33;;
74957;SDS011;63741;42.624;26.276;2023-03-20T17:39:09;40.22;;;11.80;;
74957;SDS011;63741;42.624;26.276;2023-03-20T17:41:43;24.88;;;10.10;;
74957;SDS011;63741;42.624;26.276;2023-03-20T17:44:10;16.45;;;8.10;;
74957;SDS011;63741;42.624;26.276;2023-03-20T17:46:37;19.13;;;10.55;;
74957;SDS011;63741;42.624;26.276;2023-03-20T17:49:22;20.00;;;8.55;;
74957;SDS011;63741;42.624;26.276;2023-03-20T17:51:53;18.50;;;8.40;;